Time;durP1;ratioP1;P1;durP2;ratioP2;P2;SDS_P1;SDS_P2;PMS_P1;PMS_P2;Temp;Humidity;BMP_temperature;BMP_pressure;BME280_temperature;BME280_humidity;BME280_pressure;Samples;Min_cycle;Max_cycle;Signal;HPM_P1;HPM_P2
2023/07/03 00:00:36;;;;;;;4.38;2.60;;;;;;;;;;5058928;28;20350;-87
2023/07/03 00:03:02;;;;;;;3.15;2.47;;;;;;;;;;5062427;28;20491;-85
2023/07/03 00:05:28;;;;;;;7.47;4.53;;;;;;;;;;5058123;28;20465;-85
2023/07/03 00:07:53;;;;;;;5.57;3.05;;;;;;;;;;5065225;28;20031;-86
2023/07/03 00:10:21;;;;;;;3.33;2.35;;;;;;;;;;5062031;28;20029;-87
2023/07/03 00:12:47;;;;;;;8.65;4.63;;;;;;;;;;5059267;28;20477;-85
2023/07/03 00:15:13;;;;;;;5.70;3.83;;;;;;;;;;5066303;28;20043;-87
2023/07/03 00:17:40;;;;;;;6.05;3.78;;;;;;;;;;5059769;28;20030;-88
2023/07/03 00:20:07;;;;;;;4.45;2.60;;;;;;;;;;5053070;28;20070;-88
2023/07/03 00:22:33;;;;;;;7.28;3.45;;;;;;;;;;5061613;28;20036;-85
2023/07/03 00:24:58;;;;;;;5.45;3.30;;;;;;;;;;5059088;28;20032;-88
2023/07/03 00:27:23;;;;;;;4.13;3.35;;;;;;;;;;5063375;28;20033;-87
2023/07/03 00:29:49;;;;;;;4.07;3.28;;;;;;;;;;5066062;28;20024;-88
2023/07/03 00:32:14;;;;;;;5.82;3.83;;;;;;;;;;5065489;28;20494;-86
2023/07/03 00:34:40;;;;;;;5.57;3.60;;;;;;;;;;5061760;28;20113;-85
2023/07/03 00:37:06;;;;;;;2.58;2.20;;;;;;;;;;5062449;28;20029;-87
2023/07/03 00:39:32;;;;;;;5.47;3.97;;;;;;;;;;5055299;28;20078;-85
2023/07/03 00:41:58;;;;;;;6.13;3.53;;;;;;;;;;5054073;28;20476;-85
2023/07/03 00:44:24;;;;;;;6.13;3.17;;;;;;;;;;5052288;28;20033;-86
2023/07/03 00:46:50;;;;;;;5.88;4.25;;;;;;;;;;5061191;28;20025;-86
2023/07/03 00:49:17;;;;;;;7.28;4.45;;;;;;;;;;5062527;28;20047;-86
2023/07/03 00:52:03;;;;;;;5.97;3.72;;;;;;;;;;5059159;28;20033;-84
2023/07/03 00:54:29;;;;;;;5.05;3.25;;;;;;;;;;5056171;28;20029;-85
2023/07/03 00:56:55;;;;;;;6.13;3.85;;;;;;;;;;5061610;28;20035;-85
2023/07/03 00:59:21;;;;;;;5.22;3.88;;;;;;;;;;5067560;28;20036;-86
2023/07/03 01:02:03;;;;;;;4.75;3.70;;;;;;;;;;5059218;28;20404;-85
2023/07/03 01:05:22;;;;;;;7.57;3.60;;;;;;;;;;5052789;28;20116;-87
2023/07/03 01:07:48;;;;;;;3.63;2.85;;;;;;;;;;5050354;28;20376;-85
2023/07/03 01:10:20;;;;;;;6.97;4.35;;;;;;;;;;5059135;28;20548;-87
2023/07/03 01:12:53;;;;;;;5.47;4.00;;;;;;;;;;5059297;28;20056;-88
2023/07/03 01:15:26;;;;;;;4.82;2.60;;;;;;;;;;5060457;28;20024;-88
2023/07/03 01:17:54;;;;;;;4.50;2.78;;;;;;;;;;5060270;28;20028;-90
2023/07/03 01:20:23;;;;;;;4.28;2.83;;;;;;;;;;5061912;28;20028;-89
2023/07/03 01:23:03;;;;;;;10.80;4.50;;;;;;;;;;5061510;28;20032;-88
2023/07/03 01:25:31;;;;;;;5.72;4.97;;;;;;;;;;5052543;28;20439;-87
2023/07/03 01:27:58;;;;;;;5.90;3.50;;;;;;;;;;5067418;28;20039;-86
2023/07/03 01:30:26;;;;;;;8.00;4.63;;;;;;;;;;5060629;28;20024;-88
2023/07/03 01:32:52;;;;;;;5.47;3.75;;;;;;;;;;5055270;28;20058;-86
2023/07/03 01:35:19;;;;;;;6.93;4.68;;;;;;;;;;5064702;28;20035;-85
2023/07/03 01:37:47;;;;;;;4.50;3.17;;;;;;;;;;5057527;28;20078;-84
2023/07/03 01:40:16;;;;;;;4.80;3.22;;;;;;;;;;5053670;28;20060;-86
2023/07/03 01:42:44;;;;;;;5.18;2.88;;;;;;;;;;5054767;28;20036;-86
2023/07/03 01:45:10;;;;;;;7.57;5.00;;;;;;;;;;5050550;28;20056;-86
2023/07/03 01:47:37;;;;;;;5.63;3.83;;;;;;;;;;5056479;28;20016;-85
2023/07/03 01:50:05;;;;;;;5.68;3.97;;;;;;;;;;5055110;28;20125;-86
2023/07/03 01:52:41;;;;;;;5.30;3.75;;;;;;;;;;5057701;28;20062;-86
2023/07/03 01:55:58;;;;;;;6.18;3.80;;;;;;;;;;5058364;28;20025;-87
2023/07/03 01:58:47;;;;;;;6.97;4.30;;;;;;;;;;5035354;28;20115;-86
2023/07/03 02:01:22;;;;;;;4.38;2.92;;;;;;;;;;5055124;28;20027;-87
2023/07/03 02:03:57;;;;;;;5.88;3.65;;;;;;;;;;5069731;28;20376;-85
2023/07/03 02:06:44;;;;;;;5.55;3.47;;;;;;;;;;5051990;28;20108;-85
2023/07/03 02:09:11;;;;;;;5.00;3.53;;;;;;;;;;5057946;28;20029;-86
2023/07/03 02:11:37;;;;;;;6.07;3.53;;;;;;;;;;5056899;28;20028;-85
2023/07/03 02:14:02;;;;;;;3.10;2.60;;;;;;;;;;5061920;28;20627;-86
2023/07/03 02:16:31;;;;;;;5.22;3.53;;;;;;;;;;5061405;28;20553;-85
2023/07/03 02:18:58;;;;;;;5.78;3.30;;;;;;;;;;5055597;28;20028;-86
2023/07/03 02:21:24;;;;;;;3.97;2.78;;;;;;;;;;5055830;28;20024;-86
2023/07/03 02:23:49;;;;;;;7.03;3.40;;;;;;;;;;5051118;28;20029;-87
2023/07/03 02:26:15;;;;;;;4.72;3.58;;;;;;;;;;5054565;28;20021;-86
2023/07/03 02:28:41;;;;;;;5.10;2.78;;;;;;;;;;5051394;28;20032;-87
2023/07/03 02:31:07;;;;;;;4.80;3.38;;;;;;;;;;5049785;28;20468;-85
2023/07/03 02:33:32;;;;;;;5.38;2.92;;;;;;;;;;5051599;28;20090;-86
2023/07/03 02:36:02;;;;;;;5.03;3.63;;;;;;;;;;5056078;28;20033;-87
2023/07/03 02:38:28;;;;;;;4.80;3.38;;;;;;;;;;5058020;28;20472;-86
2023/07/03 02:40:53;;;;;;;5.60;3.35;;;;;;;;;;5055986;28;20027;-86
2023/07/03 02:43:19;;;;;;;5.40;3.17;;;;;;;;;;5060079;28;20036;-85
2023/07/03 02:45:44;;;;;;;4.35;3.17;;;;;;;;;;5051798;28;20032;-86
2023/07/03 02:48:11;;;;;;;3.95;3.33;;;;;;;;;;5053647;28;20056;-86
2023/07/03 02:50:36;;;;;;;6.80;2.80;;;;;;;;;;5057212;28;20397;-86
2023/07/03 02:53:02;;;;;;;6.72;4.05;;;;;;;;;;5056877;28;20032;-86
2023/07/03 02:55:28;;;;;;;3.58;2.97;;;;;;;;;;5063600;28;20078;-86
2023/07/03 02:57:55;;;;;;;6.00;3.78;;;;;;;;;;5056711;28;20472;-85
2023/07/03 03:00:21;;;;;;;4.07;3.45;;;;;;;;;;5066095;28;20044;-88
2023/07/03 03:02:48;;;;;;;4.00;2.47;;;;;;;;;;5058723;28;20078;-87
2023/07/03 03:05:14;;;;;;;3.53;2.15;;;;;;;;;;5060737;28;20034;-85
2023/07/03 03:07:39;;;;;;;3.80;3.13;;;;;;;;;;5063598;28;20032;-85
2023/07/03 03:10:05;;;;;;;5.25;3.67;;;;;;;;;;5063041;28;20025;-89
2023/07/03 03:12:31;;;;;;;5.07;3.72;;;;;;;;;;5062709;28;20039;-88
2023/07/03 03:14:56;;;;;;;7.18;3.25;;;;;;;;;;5055016;28;20025;-88
2023/07/03 03:17:22;;;;;;;5.05;3.25;;;;;;;;;;5066239;28;20094;-88
2023/07/03 03:19:48;;;;;;;5.85;3.65;;;;;;;;;;5069663;28;20384;-88
2023/07/03 03:22:13;;;;;;;6.35;4.13;;;;;;;;;;5055969;28;20033;-88
2023/07/03 03:24:39;;;;;;;6.10;3.72;;;;;;;;;;5063548;28;20099;-87
2023/07/03 03:27:06;;;;;;;5.68;3.53;;;;;;;;;;5054696;28;20017;-87
2023/07/03 03:29:36;;;;;;;7.00;3.65;;;;;;;;;;5063959;28;20020;-86
2023/07/03 03:32:02;;;;;;;;;;;;;;;;;;5057616;28;20120;-88
2023/07/03 03:34:27;;;;;;;4.07;3.13;;;;;;;;;;5055500;28;19912;-88
2023/07/03 03:36:53;;;;;;;5.82;3.45;;;;;;;;;;5062877;28;21410;-87
2023/07/03 03:39:18;;;;;;;4.50;3.03;;;;;;;;;;5061240;28;20457;-87
2023/07/03 03:41:45;;;;;;;5.55;3.08;;;;;;;;;;5065776;28;20029;-87
2023/07/03 03:44:10;;;;;;;3.53;2.55;;;;;;;;;;5066006;28;20492;-87
2023/07/03 03:46:36;;;;;;;6.25;3.38;;;;;;;;;;5064031;28;20039;-85
2023/07/03 03:49:02;;;;;;;5.35;2.97;;;;;;;;;;5056705;28;20086;-88
2023/07/03 03:51:28;;;;;;;4.68;3.75;;;;;;;;;;5062679;28;20029;-85
2023/07/03 03:53:53;;;;;;;5.28;3.75;;;;;;;;;;5053628;28;20378;-87
2023/07/03 03:56:22;;;;;;;5.75;3.42;;;;;;;;;;5056819;28;20061;-86
2023/07/03 03:58:47;;;;;;;5.32;3.63;;;;;;;;;;5060521;28;20108;-86
2023/07/03 04:01:14;;;;;;;7.15;3.05;;;;;;;;;;5060271;28;20108;-86
2023/07/03 04:03:39;;;;;;;4.40;3.17;;;;;;;;;;5060822;28;20044;-88
2023/07/03 04:06:05;;;;;;;2.80;2.33;;;;;;;;;;5058527;28;20439;-88
2023/07/03 04:08:30;;;;;;;5.22;3.05;;;;;;;;;;5061018;28;20462;-89
2023/07/03 04:10:56;;;;;;;5.18;2.97;;;;;;;;;;5059679;28;20016;-86
2023/07/03 04:13:21;;;;;;;4.28;3.40;;;;;;;;;;5057684;28;20473;-87
2023/07/03 04:15:57;;;;;;;7.88;3.63;;;;;;;;;;5061165;28;20090;-84
2023/07/03 04:18:23;;;;;;;5.78;2.85;;;;;;;;;;5059028;28;20033;-87
2023/07/03 04:20:49;;;;;;;6.07;3.45;;;;;;;;;;5058059;28;20048;-86
2023/07/03 04:23:15;;;;;;;5.28;3.42;;;;;;;;;;5066379;28;20460;-88
2023/07/03 04:25:44;;;;;;;3.72;2.42;;;;;;;;;;5058711;28;20033;-83
2023/07/03 04:28:11;;;;;;;6.88;3.95;;;;;;;;;;5057769;28;20531;-84
2023/07/03 04:30:37;;;;;;;5.90;3.28;;;;;;;;;;5058130;28;20473;-81
2023/07/03 04:33:03;;;;;;;5.10;3.72;;;;;;;;;;5058697;28;20025;-83
2023/07/03 04:35:28;;;;;;;5.40;3.42;;;;;;;;;;5056724;28;20032;-85
2023/07/03 04:37:54;;;;;;;5.75;3.38;;;;;;;;;;5063652;28;20012;-84
2023/07/03 04:40:20;;;;;;;3.88;2.78;;;;;;;;;;5056785;28;20465;-83
2023/07/03 04:42:45;;;;;;;4.72;3.03;;;;;;;;;;5053458;28;20095;-82
2023/07/03 04:45:13;;;;;;;5.57;3.47;;;;;;;;;;5053647;28;20029;-81
2023/07/03 04:47:39;;;;;;;5.90;3.78;;;;;;;;;;5058533;28;20035;-83
2023/07/03 04:50:07;;;;;;;4.90;3.05;;;;;;;;;;5056091;28;20054;-83
2023/07/03 04:52:33;;;;;;;2.60;2.28;;;;;;;;;;5065514;28;20032;-81
2023/07/03 04:54:59;;;;;;;3.72;2.60;;;;;;;;;;5061047;28;20036;-82
2023/07/03 04:57:26;;;;;;;3.80;3.08;;;;;;;;;;5056184;28;20021;-79
2023/07/03 04:59:54;;;;;;;3.05;2.05;;;;;;;;;;5051094;28;20039;-81
2023/07/03 05:02:21;;;;;;;3.13;2.50;;;;;;;;;;5055036;28;20062;-84
2023/07/03 05:04:47;;;;;;;4.43;2.83;;;;;;;;;;5053017;28;20431;-80
2023/07/03 05:07:12;;;;;;;4.55;3.00;;;;;;;;;;5056392;28;20017;-81
2023/07/03 05:09:38;;;;;;;3.38;2.50;;;;;;;;;;5053506;28;20390;-81
2023/07/03 05:12:04;;;;;;;4.28;3.00;;;;;;;;;;5054008;28;20024;-81
2023/07/03 05:14:29;;;;;;;3.70;2.25;;;;;;;;;;5055807;28;20408;-80
2023/07/03 05:16:55;;;;;;;5.20;3.00;;;;;;;;;;5056156;28;20047;-82
2023/07/03 05:19:21;;;;;;;3.17;2.75;;;;;;;;;;5058377;28;20037;-82
2023/07/03 05:21:47;;;;;;;5.20;3.22;;;;;;;;;;5058981;28;20503;-84
2023/07/03 05:24:13;;;;;;;4.97;3.30;;;;;;;;;;5056552;28;20079;-81
2023/07/03 05:26:39;;;;;;;4.45;3.28;;;;;;;;;;5057745;28;20667;-81
2023/07/03 05:29:05;;;;;;;3.15;2.38;;;;;;;;;;5055072;28;20025;-81
2023/07/03 05:31:30;;;;;;;3.38;2.20;;;;;;;;;;5065593;28;20029;-80
2023/07/03 05:33:56;;;;;;;2.45;2.17;;;;;;;;;;5058319;28;20099;-83
2023/07/03 05:36:21;;;;;;;3.42;2.30;;;;;;;;;;5066271;28;20468;-84
2023/07/03 05:38:47;;;;;;;4.68;2.85;;;;;;;;;;5053497;28;20198;-82
2023/07/03 05:41:14;;;;;;;3.55;3.10;;;;;;;;;;5050375;28;20104;-82
2023/07/03 05:43:40;;;;;;;4.75;3.33;;;;;;;;;;5060518;28;20033;-83
2023/07/03 05:46:05;;;;;;;4.00;3.20;;;;;;;;;;5057738;28;20031;-82
2023/07/03 05:48:31;;;;;;;5.18;3.10;;;;;;;;;;5062355;28;20391;-84
2023/07/03 05:50:56;;;;;;;4.03;2.75;;;;;;;;;;5057905;28;20035;-86
2023/07/03 05:53:22;;;;;;;2.42;1.92;;;;;;;;;;5056832;28;20047;-84
2023/07/03 05:55:58;;;;;;;5.03;2.30;;;;;;;;;;5056976;28;20028;-83
2023/07/03 05:58:25;;;;;;;4.18;2.67;;;;;;;;;;5051362;28;20040;-82
2023/07/03 06:00:50;;;;;;;4.43;3.55;;;;;;;;;;5054622;28;20111;-86
2023/07/03 06:03:16;;;;;;;3.10;2.35;;;;;;;;;;5054823;28;20111;-85
2023/07/03 06:05:41;;;;;;;2.95;2.35;;;;;;;;;;5065248;28;20032;-84
2023/07/03 06:08:07;;;;;;;3.20;2.58;;;;;;;;;;5055754;28;20021;-86
2023/07/03 06:10:32;;;;;;;2.70;2.15;;;;;;;;;;5064252;28;20730;-85
2023/07/03 06:12:58;;;;;;;4.18;2.85;;;;;;;;;;5060060;28;20029;-82
2023/07/03 06:15:24;;;;;;;4.10;2.83;;;;;;;;;;5056143;28;20135;-83
2023/07/03 06:17:49;;;;;;;4.10;2.22;;;;;;;;;;5058690;28;20055;-84
2023/07/03 06:20:15;;;;;;;2.95;2.17;;;;;;;;;;5045323;28;20529;-86
2023/07/03 06:22:41;;;;;;;4.22;2.53;;;;;;;;;;5052621;28;20029;-84
2023/07/03 06:25:07;;;;;;;5.15;3.45;;;;;;;;;;5052057;28;20060;-86
2023/07/03 06:27:33;;;;;;;3.47;2.67;;;;;;;;;;5052425;28;20049;-87
2023/07/03 06:29:58;;;;;;;3.78;2.63;;;;;;;;;;5053689;28;20052;-84
2023/07/03 06:32:24;;;;;;;2.88;2.17;;;;;;;;;;5047376;28;20081;-84
2023/07/03 06:34:49;;;;;;;5.43;3.22;;;;;;;;;;5056345;28;20033;-84
2023/07/03 06:37:15;;;;;;;2.85;2.20;;;;;;;;;;5061983;28;20020;-84
2023/07/03 06:39:41;;;;;;;8.57;3.08;;;;;;;;;;5057003;28;20449;-88
2023/07/03 06:42:06;;;;;;;4.03;2.83;;;;;;;;;;5062321;28;20036;-85
2023/07/03 06:44:32;;;;;;;3.30;2.58;;;;;;;;;;5052397;28;20028;-84
2023/07/03 06:46:57;;;;;;;3.10;2.55;;;;;;;;;;5059237;28;20035;-83
2023/07/03 06:49:24;;;;;;;3.70;3.15;;;;;;;;;;5054602;28;20029;-87
2023/07/03 06:51:51;;;;;;;3.55;2.53;;;;;;;;;;5048344;28;20064;-81
2023/07/03 06:54:16;;;;;;;4.00;3.03;;;;;;;;;;5066350;28;20132;-81
2023/07/03 06:56:42;;;;;;;5.13;3.40;;;;;;;;;;5053883;28;20111;-81
2023/07/03 06:59:07;;;;;;;4.88;3.20;;;;;;;;;;5063777;28;20082;-80
2023/07/03 07:01:34;;;;;;;4.50;3.25;;;;;;;;;;5059091;28;20536;-81
2023/07/03 07:03:59;;;;;;;2.85;2.30;;;;;;;;;;5065429;28;20460;-82
2023/07/03 07:06:28;;;;;;;4.47;2.60;;;;;;;;;;5050764;28;20074;-83
2023/07/03 07:08:53;;;;;;;3.88;2.33;;;;;;;;;;5058257;28;20542;-82
2023/07/03 07:11:22;;;;;;;4.00;2.92;;;;;;;;;;5062991;28;20033;-84
2023/07/03 07:13:49;;;;;;;4.32;2.92;;;;;;;;;;5052462;28;20477;-80
2023/07/03 07:16:18;;;;;;;5.15;2.40;;;;;;;;;;5055451;28;20041;-82
2023/07/03 07:18:46;;;;;;;3.00;2.13;;;;;;;;;;5068676;28;20470;-80
2023/07/03 07:21:11;;;;;;;3.78;2.60;;;;;;;;;;5056605;28;20111;-79
2023/07/03 07:23:37;;;;;;;2.63;2.03;;;;;;;;;;5060902;28;20433;-80
2023/07/03 07:26:02;;;;;;;2.25;1.65;;;;;;;;;;5056036;28;20024;-80
2023/07/03 07:28:28;;;;;;;5.10;3.15;;;;;;;;;;5053557;28;20107;-79
2023/07/03 07:30:54;;;;;;;3.45;2.50;;;;;;;;;;5052002;28;20032;-79
2023/07/03 07:33:22;;;;;;;2.70;1.75;;;;;;;;;;5051855;28;20052;-79
2023/07/03 07:35:48;;;;;;;2.10;1.52;;;;;;;;;;5054802;28;20465;-79
2023/07/03 07:38:13;;;;;;;2.70;2.13;;;;;;;;;;5065745;28;20036;-79
2023/07/03 07:40:39;;;;;;;2.83;2.05;;;;;;;;;;5055404;28;20469;-82
2023/07/03 07:43:06;;;;;;;3.22;2.50;;;;;;;;;;5060174;28;20032;-80
2023/07/03 07:45:32;;;;;;;2.08;1.85;;;;;;;;;;5049406;28;20033;-79
2023/07/03 07:47:57;;;;;;;3.80;2.58;;;;;;;;;;5049542;28;20086;-80
2023/07/03 07:50:23;;;;;;;2.30;1.83;;;;;;;;;;5053923;28;20043;-79
2023/07/03 07:52:50;;;;;;;3.03;1.95;;;;;;;;;;5052248;28;20028;-79
2023/07/03 07:55:16;;;;;;;3.08;2.33;;;;;;;;;;5053873;28;20472;-79
2023/07/03 07:57:42;;;;;;;2.95;1.83;;;;;;;;;;5052233;28;20035;-79
2023/07/03 08:00:08;;;;;;;1.67;1.50;;;;;;;;;;5059252;28;20036;-80
2023/07/03 08:02:34;;;;;;;2.38;1.80;;;;;;;;;;5052727;28;20029;-80
2023/07/03 08:05:00;;;;;;;2.58;1.90;;;;;;;;;;5053601;28;20036;-78
2023/07/03 08:07:25;;;;;;;3.47;2.63;;;;;;;;;;5070251;28;20012;-78
2023/07/03 08:09:50;;;;;;;3.08;1.55;;;;;;;;;;5058948;28;20035;-78
2023/07/03 08:12:16;;;;;;;1.83;1.58;;;;;;;;;;5051179;28;20364;-79
2023/07/03 08:14:41;;;;;;;2.60;1.77;;;;;;;;;;5055515;28;20083;-80
2023/07/03 08:17:07;;;;;;;2.78;1.65;;;;;;;;;;5051245;28;20041;-79
2023/07/03 08:19:32;;;;;;;1.90;1.50;;;;;;;;;;5056281;28;20111;-80
2023/07/03 08:21:58;;;;;;;2.15;1.88;;;;;;;;;;5057184;28;20025;-82
2023/07/03 08:24:23;;;;;;;2.85;1.55;;;;;;;;;;5054049;28;20037;-80
2023/07/03 08:26:50;;;;;;;2.35;1.67;;;;;;;;;;5053604;28;20100;-81
2023/07/03 08:29:16;;;;;;;2.30;1.90;;;;;;;;;;5050703;28;20166;-80
2023/07/03 08:31:42;;;;;;;1.73;1.23;;;;;;;;;;5059468;28;20128;-80
2023/07/03 08:34:09;;;;;;;1.88;1.50;;;;;;;;;;5051664;28;20029;-80
2023/07/03 08:36:35;;;;;;;2.05;1.75;;;;;;;;;;5054776;28;20025;-79
2023/07/03 08:39:02;;;;;;;2.17;1.85;;;;;;;;;;5057035;28;20059;-80
2023/07/03 08:41:28;;;;;;;2.42;1.52;;;;;;;;;;5060294;28;20020;-80
2023/07/03 08:43:58;;;;;;;2.15;1.20;;;;;;;;;;5057603;28;20024;-80
2023/07/03 08:46:26;;;;;;;2.40;1.77;;;;;;;;;;5055445;28;20051;-80
2023/07/03 08:48:55;;;;;;;2.15;1.67;;;;;;;;;;5049552;28;20032;-80
2023/07/03 08:51:24;;;;;;;2.40;1.42;;;;;;;;;;5052830;28;20055;-82
2023/07/03 08:53:54;;;;;;;3.78;1.42;;;;;;;;;;5060239;28;20488;-83
2023/07/03 08:56:22;;;;;;;1.77;1.33;;;;;;;;;;5050885;28;20526;-82
2023/07/03 08:58:53;;;;;;;2.28;1.63;;;;;;;;;;5062274;28;20031;-81
2023/07/03 09:01:45;;;;;;;2.42;1.27;;;;;;;;;;5055389;28;20117;-80
2023/07/03 09:04:19;;;;;;;2.40;1.73;;;;;;;;;;5050435;28;20104;-83
2023/07/03 09:07:03;;;;;;;1.95;1.45;;;;;;;;;;5057244;28;20016;-84
2023/07/03 09:10:13;;;;;;;2.10;1.83;;;;;;;;;;5058816;28;20032;-84
2023/07/03 09:12:51;;;;;;;2.47;1.65;;;;;;;;;;5061262;28;20029;-85
2023/07/03 09:15:32;;;;;;;1.63;1.23;;;;;;;;;;5054703;28;20025;-84
2023/07/03 09:18:00;;;;;;;2.38;1.60;;;;;;;;;;5058912;28;20037;-82
2023/07/03 09:20:28;;;;;;;2.38;1.80;;;;;;;;;;5062444;28;20516;-83
2023/07/03 09:23:08;;;;;;;1.48;1.25;;;;;;;;;;5055086;28;20555;-80
2023/07/03 09:25:45;;;;;;;2.38;1.60;;;;;;;;;;5049510;28;20556;-81
2023/07/03 09:28:11;;;;;;;2.25;1.60;;;;;;;;;;5055233;28;20040;-81
2023/07/03 09:30:37;;;;;;;2.67;1.55;;;;;;;;;;5053243;28;20020;-79
2023/07/03 09:33:03;;;;;;;2.95;2.13;;;;;;;;;;5052580;28;20094;-81
2023/07/03 09:35:42;;;;;;;3.20;2.28;;;;;;;;;;5052531;28;20477;-81
2023/07/03 09:38:26;;;;;;;2.70;1.67;;;;;;;;;;5050977;28;20385;-81
2023/07/03 09:40:55;;;;;;;2.50;1.38;;;;;;;;;;5050775;28;20409;-80
2023/07/03 09:43:25;;;;;;;1.83;1.55;;;;;;;;;;5050626;28;20039;-79
2023/07/03 09:46:08;;;;;;;5.15;2.60;;;;;;;;;;5050840;28;20032;-80
2023/07/03 09:48:35;;;;;;;1.95;1.42;;;;;;;;;;5050387;28;20017;-80
2023/07/03 09:51:04;;;;;;;2.70;1.83;;;;;;;;;;5049603;28;20052;-80
2023/07/03 09:53:30;;;;;;;2.33;1.83;;;;;;;;;;5048668;28;20021;-79
2023/07/03 09:55:58;;;;;;;2.40;1.70;;;;;;;;;;5048336;28;20056;-80
2023/07/03 09:58:28;;;;;;;2.95;1.90;;;;;;;;;;5051824;28;20029;-79
2023/07/03 10:00:56;;;;;;;2.97;2.05;;;;;;;;;;5052191;28;20033;-81
2023/07/03 10:03:28;;;;;;;2.22;1.60;;;;;;;;;;5056953;28;20378;-82
2023/07/03 10:05:55;;;;;;;1.70;1.35;;;;;;;;;;5059654;28;20028;-81
2023/07/03 10:08:24;;;;;;;1.98;1.55;;;;;;;;;;5058083;28;20036;-81
2023/07/03 10:10:53;;;;;;;2.00;1.27;;;;;;;;;;5047709;28;20454;-81
2023/07/03 10:13:31;;;;;;;2.38;1.73;;;;;;;;;;5054842;28;20537;-81
2023/07/03 10:15:59;;;;;;;1.55;1.35;;;;;;;;;;5049135;28;20427;-81
2023/07/03 10:18:33;;;;;;;2.22;1.70;;;;;;;;;;5047307;28;20049;-80
2023/07/03 10:21:01;;;;;;;2.30;1.60;;;;;;;;;;5053926;28;20469;-79
2023/07/03 10:23:33;;;;;;;2.83;1.70;;;;;;;;;;5055609;28;20025;-81
2023/07/03 10:26:20;;;;;;;3.55;2.03;;;;;;;;;;5047598;28;20267;-81
2023/07/03 10:28:57;;;;;;;2.80;1.67;;;;;;;;;;5051312;28;20027;-80
2023/07/03 10:31:51;;;;;;;2.80;1.65;;;;;;;;;;5046074;28;20108;-81
2023/07/03 10:34:23;;;;;;;2.08;1.23;;;;;;;;;;5035580;28;20048;-77
2023/07/03 10:36:53;;;;;;;2.58;1.40;;;;;;;;;;5047801;28;20033;-79
2023/07/03 10:39:34;;;;;;;1.60;1.35;;;;;;;;;;5077007;28;20033;-82
2023/07/03 10:42:03;;;;;;;2.30;1.83;;;;;;;;;;5041224;28;20035;-77
2023/07/03 10:44:37;;;;;;;3.40;2.05;;;;;;;;;;5036539;28;20029;-79
2023/07/03 10:47:16;;;;;;;2.58;1.58;;;;;;;;;;5037871;28;20130;-79
2023/07/03 10:49:44;;;;;;;1.52;1.17;;;;;;;;;;5046261;28;20028;-82
2023/07/03 10:52:16;;;;;;;2.38;1.67;;;;;;;;;;5040596;28;20108;-79
2023/07/03 10:55:07;;;;;;;1.77;1.33;;;;;;;;;;5043025;28;20021;-78
2023/07/03 10:58:05;;;;;;;2.30;1.33;;;;;;;;;;5037177;28;20063;-79
2023/07/03 11:00:46;;;;;;;2.08;1.40;;;;;;;;;;5040720;28;20489;-79
2023/07/03 11:03:17;;;;;;;1.48;1.13;;;;;;;;;;5039973;28;20025;-80
2023/07/03 11:05:50;;;;;;;2.20;1.02;;;;;;;;;;5035880;28;20025;-80
2023/07/03 11:08:35;;;;;;;1.80;1.38;;;;;;;;;;5039719;28;20017;-80
2023/07/03 11:11:11;;;;;;;1.98;1.48;;;;;;;;;;5036052;28;20029;-81
2023/07/03 11:13:56;;;;;;;3.25;1.92;;;;;;;;;;5034617;28;20018;-76
2023/07/03 11:16:29;;;;;;;3.35;2.05;;;;;;;;;;5037685;28;20033;-82
2023/07/03 11:19:03;;;;;;;1.85;1.25;;;;;;;;;;5043369;28;20029;-80
2023/07/03 11:21:29;;;;;;;3.13;1.58;;;;;;;;;;5042886;28;20388;-77
2023/07/03 11:24:16;;;;;;;1.73;1.30;;;;;;;;;;5048661;28;20031;-83
2023/07/03 11:26:49;;;;;;;1.55;1.35;;;;;;;;;;5049152;28;20389;-80
2023/07/03 11:29:15;;;;;;;1.88;1.50;;;;;;;;;;5042966;28;20056;-80
2023/07/03 11:31:43;;;;;;;1.63;1.20;;;;;;;;;;5044869;28;20130;-79
2023/07/03 11:34:12;;;;;;;1.65;1.25;;;;;;;;;;5049437;28;20057;-81
2023/07/03 11:36:38;;;;;;;1.65;1.20;;;;;;;;;;5051915;28;20480;-87
2023/07/03 11:39:33;;;;;;;1.17;1.00;;;;;;;;;;5060941;28;20083;-85
2023/07/03 11:42:02;;;;;;;1.95;1.08;;;;;;;;;;5061970;28;20031;-86
2023/07/03 11:44:27;;;;;;;1.85;1.30;;;;;;;;;;5067194;28;20113;-85
2023/07/03 11:46:55;;;;;;;1.55;1.20;;;;;;;;;;5057493;28;20072;-84
2023/07/03 11:49:26;;;;;;;1.20;0.82;;;;;;;;;;5059238;28;20426;-84
2023/07/03 11:51:57;;;;;;;1.90;1.50;;;;;;;;;;5057369;28;20099;-86
2023/07/03 11:54:27;;;;;;;2.40;1.63;;;;;;;;;;5053839;28;20032;-83
2023/07/03 11:56:59;;;;;;;3.40;1.73;;;;;;;;;;5058363;28;20450;-85
2023/07/03 11:59:28;;;;;;;1.85;1.42;;;;;;;;;;5062084;28;20029;-82
2023/07/03 12:02:14;;;;;;;2.65;1.60;;;;;;;;;;5062377;28;20027;-83
2023/07/03 12:04:42;;;;;;;1.27;1.08;;;;;;;;;;5033776;28;20060;-83
2023/07/03 12:07:09;;;;;;;2.35;1.35;;;;;;;;;;5054918;28;20481;-84
2023/07/03 12:09:34;;;;;;;2.05;1.45;;;;;;;;;;5054922;28;20033;-85
2023/07/03 12:12:00;;;;;;;1.30;1.20;;;;;;;;;;5060398;28;20040;-80
2023/07/03 12:14:44;;;;;;;1.55;1.02;;;;;;;;;;5056617;28;20032;-84
2023/07/03 12:17:24;;;;;;;1.65;1.10;;;;;;;;;;5064669;28;20051;-87
2023/07/03 12:19:55;;;;;;;1.95;1.40;;;;;;;;;;5062840;28;20047;-86
2023/07/03 12:22:27;;;;;;;1.75;1.20;;;;;;;;;;5048585;28;20037;-81
2023/07/03 12:25:01;;;;;;;1.92;1.52;;;;;;;;;;5055540;28;20028;-79
2023/07/03 12:27:27;;;;;;;1.92;1.33;;;;;;;;;;5054903;28;20028;-79
2023/07/03 12:29:52;;;;;;;2.92;1.30;;;;;;;;;;5050795;28;20112;-80
2023/07/03 12:32:30;;;;;;;1.17;0.90;;;;;;;;;;5056815;28;20037;-79
2023/07/03 12:35:09;;;;;;;1.77;1.15;;;;;;;;;;5066798;28;20028;-79
2023/07/03 12:37:34;;;;;;;3.00;1.92;;;;;;;;;;5053722;28;20021;-79
2023/07/03 12:40:00;;;;;;;3.85;1.73;;;;;;;;;;5052954;28;20048;-85
2023/07/03 12:42:28;;;;;;;2.00;1.20;;;;;;;;;;5059060;28;20031;-84
2023/07/03 12:45:09;;;;;;;1.23;1.00;;;;;;;;;;5057380;28;20028;-83
2023/07/03 12:47:35;;;;;;;2.53;1.92;;;;;;;;;;5057252;28;20025;-84
2023/07/03 12:50:01;;;;;;;2.30;1.40;;;;;;;;;;5064560;28;20037;-83
2023/07/03 12:52:32;;;;;;;1.67;1.33;;;;;;;;;;5052847;28;20032;-85
2023/07/03 12:55:00;;;;;;;2.03;1.23;;;;;;;;;;5056131;28;20028;-84
2023/07/03 12:57:27;;;;;;;1.58;1.10;;;;;;;;;;5064370;28;20039;-81
2023/07/03 12:59:53;;;;;;;2.15;1.60;;;;;;;;;;5051148;28;20032;-82
2023/07/03 13:02:31;;;;;;;2.13;1.58;;;;;;;;;;5050432;28;20037;-82
2023/07/03 13:05:00;;;;;;;1.40;1.20;;;;;;;;;;5052963;28;20029;-82
2023/07/03 13:07:27;;;;;;;1.40;1.30;;;;;;;;;;5059122;28;20375;-84
2023/07/03 13:09:55;;;;;;;3.50;1.65;;;;;;;;;;5051529;28;20474;-83
2023/07/03 13:12:25;;;;;;;1.63;1.30;;;;;;;;;;5049171;28;20361;-84
2023/07/03 13:15:01;;;;;;;2.58;1.65;;;;;;;;;;5055266;28;20053;-82
2023/07/03 13:17:28;;;;;;;1.52;1.00;;;;;;;;;;5060184;28;20115;-84
2023/07/03 13:19:54;;;;;;;1.95;1.30;;;;;;;;;;5057297;28;20026;-82
2023/07/03 13:22:20;;;;;;;1.23;0.90;;;;;;;;;;5062492;28;20075;-85
2023/07/03 13:24:49;;;;;;;1.60;1.05;;;;;;;;;;5052944;28;20028;-83
2023/07/03 13:27:23;;;;;;;1.13;1.03;;;;;;;;;;5058439;28;20035;-83
2023/07/03 13:29:51;;;;;;;1.83;1.33;;;;;;;;;;5064563;28;20025;-84
2023/07/03 13:32:22;;;;;;;2.35;1.65;;;;;;;;;;5059281;28;20380;-84
2023/07/03 13:35:00;;;;;;;1.38;1.10;;;;;;;;;;5059987;28;20031;-84
2023/07/03 13:37:29;;;;;;;1.20;0.73;;;;;;;;;;5055486;28;20030;-83
2023/07/03 13:39:54;;;;;;;2.10;1.08;;;;;;;;;;5051824;28;20042;-82
2023/07/03 13:42:20;;;;;;;1.52;1.10;;;;;;;;;;5061187;28;20191;-82
2023/07/03 13:44:45;;;;;;;1.67;1.58;;;;;;;;;;5060249;28;20078;-84
2023/07/03 13:47:11;;;;;;;0.77;0.68;;;;;;;;;;5055481;28;20024;-83
2023/07/03 13:49:37;;;;;;;2.72;1.67;;;;;;;;;;5057242;28;20090;-84
2023/07/03 13:52:03;;;;;;;1.00;0.82;;;;;;;;;;5055408;28;20029;-83
2023/07/03 13:54:29;;;;;;;1.55;1.13;;;;;;;;;;5053288;28;20038;-84
2023/07/03 13:56:54;;;;;;;1.65;1.30;;;;;;;;;;5060107;28;20029;-83
2023/07/03 13:59:20;;;;;;;1.92;1.20;;;;;;;;;;5062978;28;20452;-83
2023/07/03 14:01:45;;;;;;;1.38;1.02;;;;;;;;;;5046683;28;20358;-83
2023/07/03 14:04:11;;;;;;;1.45;0.95;;;;;;;;;;5053350;28;20513;-82
2023/07/03 14:06:37;;;;;;;1.13;0.82;;;;;;;;;;5055032;28;20078;-84
2023/07/03 14:09:03;;;;;;;1.60;1.35;;;;;;;;;;5049273;28;20025;-86
2023/07/03 14:11:29;;;;;;;1.25;1.13;;;;;;;;;;5055873;28;20150;-86
2023/07/03 14:13:55;;;;;;;2.40;1.13;;;;;;;;;;5065801;28;20135;-83
2023/07/03 14:16:20;;;;;;;1.42;1.02;;;;;;;;;;5056220;28;20119;-82
2023/07/03 14:18:46;;;;;;;1.67;1.08;;;;;;;;;;5053719;28;20036;-84
2023/07/03 14:21:13;;;;;;;2.90;1.88;;;;;;;;;;5055609;28;20035;-82
2023/07/03 14:23:39;;;;;;;1.48;0.95;;;;;;;;;;5056169;28;20031;-82
2023/07/03 14:26:05;;;;;;;2.25;1.48;;;;;;;;;;5048742;28;20117;-85
2023/07/03 14:28:30;;;;;;;5.43;2.65;;;;;;;;;;5054159;28;20634;-84
2023/07/03 14:30:56;;;;;;;3.05;1.50;;;;;;;;;;5052006;28;20028;-84
2023/07/03 14:33:21;;;;;;;4.00;2.08;;;;;;;;;;5055469;28;20029;-85
2023/07/03 14:35:47;;;;;;;1.45;1.20;;;;;;;;;;5059416;28;20064;-83
2023/07/03 14:38:13;;;;;;;1.60;1.17;;;;;;;;;;5057689;28;20024;-84
2023/07/03 14:40:38;;;;;;;1.33;1.05;;;;;;;;;;5056871;28;20029;-85
2023/07/03 14:43:05;;;;;;;1.77;1.30;;;;;;;;;;5049142;28;20035;-86
2023/07/03 14:45:31;;;;;;;1.25;0.85;;;;;;;;;;5049989;28;20055;-85
2023/07/03 14:47:57;;;;;;;1.35;0.90;;;;;;;;;;5052687;28;20083;-88
2023/07/03 14:50:22;;;;;;;1.65;1.30;;;;;;;;;;5047329;28;20029;-85
2023/07/03 14:52:48;;;;;;;3.88;1.23;;;;;;;;;;5056774;28;20029;-86